Time;durP1;ratioP1;P1;durP2;ratioP2;P2;SDS_P1;SDS_P2;PMS_P1;PMS_P2;Temp;Humidity;BMP_temperature;BMP_pressure;BME280_temperature;BME280_humidity;BME280_pressure;Samples;Min_cycle;Max_cycle;Signal;HPM_P1;HPM_P2
2023/08/26 00:00:19;;;;;;;;;1.00;1.00;;;;;22.02;43.70;100827.16;5094436;27;47949;-63
2023/08/26 00:02:45;;;;;;;;;2.33;1.00;;;;;21.96;44.20;100838.94;5078684;27;45227;-62
2023/08/26 00:05:10;;;;;;;;;2.00;1.33;;;;;21.92;44.78;100834.66;5078972;28;45526;-62
2023/08/26 00:07:36;;;;;;;;;1.33;1.00;;;;;21.96;44.97;100846.06;5079199;27;45651;-63
2023/08/26 00:10:02;;;;;;;;;2.00;2.00;;;;;21.95;45.50;100842.53;5077860;27;45420;-62
2023/08/26 00:12:27;;;;;;;;;0.00;0.00;;;;;22.00;46.24;100835.22;5077348;27;45542;-62
2023/08/26 00:14:53;;;;;;;;;2.00;2.00;;;;;22.07;46.12;100849.13;5077029;27;45801;-63
2023/08/26 00:17:18;;;;;;;;;5.00;2.00;;;;;22.06;46.20;100834.06;5078902;28;45443;-65
2023/08/26 00:19:44;;;;;;;;;1.00;1.00;;;;;22.10;45.92;100832.13;5076288;27;45499;-65
2023/08/26 00:22:11;;;;;;;;;2.33;1.00;;;;;22.04;46.93;100825.25;5077189;27;45365;-63
2023/08/26 00:24:36;;;;;;;;;3.00;2.00;;;;;22.07;46.63;100822.47;5077261;27;45367;-64
2023/08/26 00:27:06;;;;;;;;;1.33;1.33;;;;;22.13;45.89;100826.66;5077467;27;45425;-62
2023/08/26 00:29:32;;;;;;;;;3.00;1.00;;;;;22.12;45.40;100812.47;5075439;27;47740;-63
2023/08/26 00:31:57;;;;;;;;;3.33;2.00;;;;;22.05;45.70;100812.81;5076712;27;45515;-62
2023/08/26 00:34:23;;;;;;;;;5.00;2.00;;;;;22.09;45.46;100823.28;5077588;27;45305;-62
2023/08/26 00:36:48;;;;;;;;;2.00;2.00;;;;;22.06;47.97;100819.88;5076934;27;45356;-63
2023/08/26 00:39:14;;;;;;;;;0.33;0.33;;;;;22.08;46.27;100818.00;5076257;27;45980;-62
2023/08/26 00:41:39;;;;;;;;;2.00;2.00;;;;;22.02;45.62;100813.81;5075667;28;45471;-61
2023/08/26 00:44:05;;;;;;;;;1.67;1.67;;;;;22.08;45.39;100816.19;5076626;27;45364;-62
2023/08/26 00:46:31;;;;;;;;;4.33;2.00;;;;;22.08;45.64;100818.00;5078159;27;45324;-61
2023/08/26 00:49:01;;;;;;;;;1.00;1.00;;;;;22.00;45.48;100807.69;5076130;27;45459;-61
2023/08/26 00:51:28;;;;;;;;;1.25;1.00;;;;;22.05;45.24;100819.00;5074856;27;45697;-61
2023/08/26 00:53:54;;;;;;;;;2.00;2.00;;;;;22.02;45.11;100817.34;5076607;27;45457;-62
2023/08/26 00:56:21;;;;;;;;;4.00;2.67;;;;;21.87;45.81;100809.13;5076753;27;45490;-61
2023/08/26 00:58:51;;;;;;;;;1.33;1.33;;;;;21.82;45.71;100814.66;5076172;27;45504;-61
2023/08/26 01:01:17;;;;;;;;;1.00;1.00;;;;;21.89;45.76;100823.28;5076651;27;45338;-61
2023/08/26 01:03:43;;;;;;;;;1.00;1.00;;;;;21.69;45.75;100779.69;5075228;27;45483;-62
2023/08/26 01:06:08;;;;;;;;;1.33;1.33;;;;;21.89;45.97;100813.47;5076601;28;45362;-65
2023/08/26 01:08:34;;;;;;;;;3.00;2.00;;;;;21.88;45.88;100805.53;5076004;28;45460;-62
2023/08/26 01:11:23;;;;;;;;;1.00;1.00;;;;;21.83;46.32;100795.09;5075747;27;45451;-62
2023/08/26 01:14:10;;;;;;;;;2.00;2.00;;;;;21.90;45.80;100817.00;5078000;27;45353;-62
2023/08/26 01:16:38;;;;;;;;;1.25;1.25;;;;;21.89;45.62;100828.59;5079898;27;45522;-63
2023/08/26 01:19:09;;;;;;;;;1.00;1.00;;;;;21.91;45.56;100826.75;5080703;27;46524;-63
2023/08/26 01:21:37;;;;;;;;;1.33;1.33;;;;;21.89;45.68;100823.28;5080960;27;45658;-62
2023/08/26 01:24:04;;;;;;;;;3.00;1.33;;;;;21.85;45.71;100821.66;5079908;27;45592;-63
2023/08/26 01:26:30;;;;;;;;;1.00;1.00;;;;;21.84;46.03;100825.28;5079972;27;45844;-63
2023/08/26 01:28:56;;;;;;;;;1.00;1.00;;;;;21.75;46.25;100829.19;5080419;27;46423;-62
2023/08/26 01:31:22;;;;;;;;;1.75;1.75;;;;;21.69;46.88;100826.78;5080082;27;45404;-64
2023/08/26 01:34:10;;;;;;;;;1.33;1.33;;;;;21.62;46.56;100825.31;5080026;27;45488;-65
2023/08/26 01:36:42;;;;;;;;;1.00;1.00;;;;;21.55;46.41;100820.25;5079530;27;45538;-61
2023/08/26 01:39:12;;;;;;;;;2.00;1.00;;;;;21.49;46.58;100811.66;5079664;27;46062;-62
2023/08/26 01:41:43;;;;;;;;;3.00;1.00;;;;;21.45;46.38;100818.94;5079711;27;45456;-65
2023/08/26 01:44:10;;;;;;;;;2.33;2.00;;;;;21.34;46.88;100794.50;5080257;27;45499;-65
2023/08/26 01:46:37;;;;;;;;;0.33;0.33;;;;;21.48;46.55;100801.94;5081028;27;45427;-62
2023/08/26 01:49:04;;;;;;;;;1.67;1.00;;;;;21.47;46.34;100795.72;5080574;27;46331;-61
2023/08/26 01:51:30;;;;;;;;;0.33;0.33;;;;;21.36;46.28;100795.28;5079336;27;45455;-64
2023/08/26 01:53:55;;;;;;;;;2.00;1.00;;;;;21.27;46.56;100793.88;5095480;27;45362;-65
2023/08/26 01:56:21;;;;;;;;;0.33;0.33;;;;;21.29;46.59;100800.00;5079767;27;45727;-67
2023/08/26 01:58:46;;;;;;;;;1.00;1.00;;;;;21.33;46.53;100803.41;5079496;27;46100;-61
2023/08/26 02:01:12;;;;;;;;;2.00;1.00;;;;;21.36;46.43;100803.28;5079267;27;45448;-62
2023/08/26 02:03:38;;;;;;;;;2.33;1.00;;;;;21.27;46.22;100791.22;5079037;27;45446;-62
2023/08/26 02:06:03;;;;;;;;;1.00;0.67;;;;;21.29;46.19;100800.00;5079525;27;45520;-62
2023/08/26 02:08:29;;;;;;;;;1.67;1.67;;;;;21.22;46.50;100793.19;5079327;27;46384;-60
2023/08/26 02:10:58;;;;;;;;;1.00;1.00;;;;;21.17;46.33;100774.75;5079143;27;45554;-62
2023/08/26 02:13:24;;;;;;;;;2.00;2.00;;;;;21.18;46.44;100784.44;5079598;27;45592;-61
2023/08/26 02:15:50;;;;;;;;;1.00;1.00;;;;;21.15;46.54;100791.72;5080176;27;45260;-61
2023/08/26 02:18:16;;;;;;;;;1.33;1.33;;;;;21.02;46.75;100793.13;5079245;27;45338;-61
2023/08/26 02:20:42;;;;;;;;;1.00;1.00;;;;;20.90;47.30;100792.69;5079172;27;45561;-62
2023/08/26 02:23:09;;;;;;;;;3.00;2.00;;;;;20.79;47.38;100780.78;5079497;27;45401;-61
2023/08/26 02:25:35;;;;;;;;;1.00;1.00;;;;;20.71;47.93;100791.69;5077980;27;45377;-63
2023/08/26 02:28:00;;;;;;;;;1.67;1.67;;;;;20.61;47.67;100783.22;5079216;27;46150;-62
2023/08/26 02:30:26;;;;;;;;;3.00;1.67;;;;;20.51;48.43;100781.81;5078718;27;45481;-63
2023/08/26 02:32:51;;;;;;;;;3.00;2.00;;;;;20.46;48.46;100783.78;5094535;27;45518;-63
2023/08/26 02:35:17;;;;;;;;;1.00;1.00;;;;;20.49;48.55;100776.53;5078893;27;45402;-61
2023/08/26 02:37:42;;;;;;;;;1.00;1.00;;;;;20.58;48.13;100778.00;5079468;27;46162;-63
2023/08/26 02:40:08;;;;;;;;;3.33;1.00;;;;;20.65;47.97;100784.84;5079416;27;45336;-61
2023/08/26 02:42:34;;;;;;;;;1.00;1.00;;;;;20.61;48.05;100785.00;5078817;27;45455;-63
2023/08/26 02:45:04;;;;;;;;;1.00;1.00;;;;;20.62;48.41;100765.44;5078943;27;45531;-62
2023/08/26 02:47:30;;;;;;;;;4.33;0.67;;;;;20.70;48.23;100777.53;5076638;27;46775;-64
2023/08/26 02:50:02;;;;;;;;;2.00;2.00;;;;;20.62;48.15;100768.09;5078286;27;45457;-62
2023/08/26 02:52:27;;;;;;;;;3.00;2.00;;;;;20.30;48.43;100744.44;5079262;27;45451;-65
2023/08/26 02:54:53;;;;;;;;;1.33;1.33;;;;;20.51;48.83;100772.03;5078281;27;45417;-63
2023/08/26 02:57:19;;;;;;;;;2.00;2.00;;;;;20.51;48.40;100764.03;5078998;27;46345;-62
2023/08/26 02:59:45;;;;;;;;;2.00;2.00;;;;;20.50;48.65;100772.06;5079903;27;45498;-63
2023/08/26 03:02:11;;;;;;;;;1.67;1.67;;;;;20.44;48.69;100764.34;5077931;27;45400;-62
2023/08/26 03:04:36;;;;;;;;;2.00;2.00;;;;;20.53;48.76;100764.00;5078360;27;45408;-64
2023/08/26 03:07:02;;;;;;;;;3.00;1.00;;;;;20.56;48.61;100749.72;5078094;27;46198;-64
2023/08/26 03:09:28;;;;;;;;;2.33;2.00;;;;;20.42;49.10;100758.22;5078203;27;45364;-62
2023/08/26 03:11:55;;;;;;;;;1.67;1.67;;;;;20.28;49.39;100754.28;5077811;27;45546;-63
2023/08/26 03:14:21;;;;;;;;;1.33;1.00;;;;;20.21;49.36;100758.09;5078691;27;45514;-62
2023/08/26 03:16:46;;;;;;;;;1.00;1.00;;;;;20.33;49.21;100755.00;5094098;27;46723;-62
2023/08/26 03:19:12;;;;;;;;;1.33;1.33;;;;;20.42;49.67;100750.22;5077989;27;45487;-62
2023/08/26 03:21:37;;;;;;;;;1.00;1.00;;;;;20.43;49.26;100749.28;5077950;27;45544;-62
2023/08/26 03:24:03;;;;;;;;;2.00;2.00;;;;;20.46;49.05;100749.19;5078574;27;45453;-62
2023/08/26 03:26:29;;;;;;;;;1.00;1.00;;;;;20.53;49.17;100766.66;5077832;27;45485;-62
2023/08/26 03:28:54;;;;;;;;;3.00;1.33;;;;;20.45;49.14;100750.97;5077798;27;45318;-63
2023/08/26 03:31:20;;;;;;;;;2.00;2.00;;;;;20.54;49.46;100755.06;5078096;27;45385;-62
2023/08/26 03:33:45;;;;;;;;;4.67;2.67;;;;;20.55;49.56;100743.53;5078303;28;45306;-63
2023/08/26 03:36:11;;;;;;;;;2.00;2.00;;;;;20.49;49.66;100747.25;5077036;27;46129;-61
2023/08/26 03:38:36;;;;;;;;;3.00;1.67;;;;;20.41;49.94;100751.16;5077474;27;45454;-61
2023/08/26 03:41:03;;;;;;;;;2.00;2.00;;;;;20.37;49.75;100750.41;5078943;27;45847;-63
2023/08/26 03:43:29;;;;;;;;;2.00;2.00;;;;;20.38;49.95;100748.59;5078642;27;45585;-63
2023/08/26 03:45:54;;;;;;;;;4.00;3.00;;;;;20.35;49.94;100757.56;5077365;27;45408;-62
2023/08/26 03:48:20;;;;;;;;;2.00;2.00;;;;;20.21;50.39;100750.13;5076421;27;45334;-64
2023/08/26 03:50:52;;;;;;;;;3.00;2.00;;;;;20.25;50.52;100757.06;5078199;27;45515;-65
2023/08/26 03:53:19;;;;;;;;;3.67;2.67;;;;;20.03;51.11;100734.88;5077968;27;45384;-65
2023/08/26 03:55:45;;;;;;;;;2.00;2.00;;;;;20.01;51.48;100752.66;5092862;27;46441;-61
2023/08/26 03:58:10;;;;;;;;;2.00;2.00;;;;;19.98;51.72;100750.09;5077641;27;45517;-67
2023/08/26 04:00:37;;;;;;;;;2.67;2.00;;;;;19.92;51.83;100753.88;5077419;27;45535;-65
2023/08/26 04:03:04;;;;;;;;;2.00;2.00;;;;;19.88;52.20;100736.28;5077857;27;45409;-63
2023/08/26 04:05:30;;;;;;;;;3.33;3.33;;;;;19.86;52.26;100741.69;5077032;27;45753;-62
2023/08/26 04:07:55;;;;;;;;;4.00;2.00;;;;;19.85;52.54;100745.25;5077123;27;45393;-62
2023/08/26 04:10:22;;;;;;;;;2.33;2.33;;;;;19.87;52.59;100751.38;5077372;27;45478;-62
2023/08/26 04:12:47;;;;;;;;;5.67;3.33;;;;;19.85;52.75;100750.56;5077543;27;45469;-62
2023/08/26 04:15:14;;;;;;;;;2.67;2.67;;;;;19.92;52.70;100759.19;5075407;27;45619;-62
2023/08/26 04:17:41;;;;;;;;;4.00;3.33;;;;;19.90;52.70;100761.03;5061477;27;45876;-64
2023/08/26 04:20:08;;;;;;;;;2.33;2.33;;;;;19.85;52.71;100750.56;5092799;27;45876;-61
2023/08/26 04:22:34;;;;;;;;;2.67;2.33;;;;;19.84;52.97;100759.47;5075381;27;45337;-63
2023/08/26 04:25:00;;;;;;;;;5.00;3.00;;;;;19.84;52.76;100748.84;5076731;27;45500;-62
2023/08/26 04:27:25;;;;;;;;;1.67;1.67;;;;;19.85;52.78;100739.06;5076790;27;45292;-62
2023/08/26 04:29:51;;;;;;;;;1.67;1.67;;;;;19.86;52.71;100747.00;5077545;27;45413;-63
2023/08/26 04:32:17;;;;;;;;;3.00;1.33;;;;;19.84;52.76;100758.59;5077168;27;45543;-62
2023/08/26 04:34:43;;;;;;;;;6.33;2.00;;;;;19.89;52.84;100752.19;5075636;27;46542;-62
2023/08/26 04:37:09;;;;;;;;;3.33;2.00;;;;;19.94;52.55;100743.19;5076476;27;45612;-62
2023/08/26 04:39:34;;;;;;;;;2.67;2.00;;;;;19.97;52.51;100745.72;5075056;27;45487;-62
2023/08/26 04:42:01;;;;;;;;;4.00;2.00;;;;;19.89;52.77;100735.38;5076874;27;45392;-61
2023/08/26 04:44:26;;;;;;;;;3.00;1.00;;;;;20.00;52.73;100750.91;5091881;27;46232;-62
2023/08/26 04:46:53;;;;;;;;;1.00;1.00;;;;;19.96;52.94;100757.28;5076563;28;45471;-61
2023/08/26 04:49:19;;;;;;;;;3.00;2.33;;;;;19.82;53.19;100761.31;5075983;27;45549;-62
2023/08/26 04:51:53;;;;;;;;;2.67;2.67;;;;;19.60;53.79;100752.31;5077973;27;45361;-62
2023/08/26 04:54:18;;;;;;;;;1.33;1.00;;;;;19.62;53.64;100755.78;5078042;27;45567;-62
2023/08/26 04:56:45;;;;;;;;;2.33;2.33;;;;;19.61;53.55;100748.75;5076768;27;45453;-62
2023/08/26 04:59:11;;;;;;;;;1.33;1.33;;;;;19.68;53.66;100758.28;5076888;27;45389;-62
2023/08/26 05:01:36;;;;;;;;;2.00;2.00;;;;;19.73;53.62;100755.47;5077085;27;45580;-62
2023/08/26 05:04:08;;;;;;;;;2.67;2.00;;;;;19.69;53.44;100752.03;5076156;28;45501;-64
2023/08/26 05:06:34;;;;;;;;;4.33;2.33;;;;;19.76;53.56;100760.66;5075056;27;45395;-61
2023/08/26 05:09:00;;;;;;;;;1.33;1.33;;;;;19.74;53.98;100771.31;5076494;27;45324;-63
2023/08/26 05:11:25;;;;;;;;;4.67;2.00;;;;;19.59;54.00;100759.41;5078698;27;45270;-64
2023/08/26 05:13:51;;;;;;;;;2.00;2.00;;;;;19.74;53.86;100779.28;5079095;27;46480;-64
2023/08/26 05:16:17;;;;;;;;;3.00;1.67;;;;;19.56;53.82;100740.94;5078960;27;45439;-66
2023/08/26 05:18:42;;;;;;;;;3.00;1.00;;;;;19.76;53.80;100780.13;5078343;27;45346;-63
2023/08/26 05:21:08;;;;;;;;;2.00;2.00;;;;;19.76;53.52;100777.47;5077869;28;45415;-61
2023/08/26 05:23:33;;;;;;;;;3.33;2.00;;;;;19.80;54.00;100779.09;5077498;27;45727;-62
2023/08/26 05:25:59;;;;;;;;;1.00;1.00;;;;;19.70;53.86;100772.38;5076746;28;45805;-62
2023/08/26 05:28:24;;;;;;;;;3.00;2.00;;;;;19.59;54.45;100788.66;5076757;27;45366;-63
2023/08/26 05:30:50;;;;;;;;;1.33;1.00;;;;;19.58;54.17;100789.59;5076510;27;45514;-62
2023/08/26 05:33:16;;;;;;;;;1.67;1.67;;;;;19.55;54.16;100788.81;5076231;27;46159;-65
2023/08/26 05:35:42;;;;;;;;;1.67;1.67;;;;;19.55;54.39;100788.81;5076050;27;45523;-61
2023/08/26 05:38:08;;;;;;;;;1.00;1.00;;;;;19.61;54.32;100794.78;5076464;27;45379;-63
2023/08/26 05:40:34;;;;;;;;;2.00;2.00;;;;;19.48;54.79;100783.72;5077231;27;45439;-65
2023/08/26 05:42:59;;;;;;;;;2.33;2.00;;;;;19.50;55.04;100791.63;5076142;27;45978;-65
2023/08/26 05:45:25;;;;;;;;;3.67;2.00;;;;;19.38;55.79;100782.28;5076357;28;45331;-64
2023/08/26 05:47:52;;;;;;;;;4.33;1.67;;;;;19.31;55.43;100770.13;5075763;27;45502;-63
2023/08/26 05:50:18;;;;;;;;;3.00;1.67;;;;;19.44;55.09;100781.22;5076105;27;45442;-65
2023/08/26 05:52:44;;;;;;;;;2.00;2.00;;;;;19.57;55.09;100777.19;5075826;27;45402;-64
2023/08/26 05:55:10;;;;;;;;;2.67;1.00;;;;;19.64;54.87;100781.38;5074925;28;45621;-65
2023/08/26 05:57:40;;;;;;;;;1.00;1.00;;;;;19.65;54.88;100784.94;5075522;27;45448;-63
2023/08/26 06:00:06;;;;;;;;;1.00;1.00;;;;;19.70;54.63;100778.56;5075766;27;45394;-64
2023/08/26 06:02:32;;;;;;;;;2.00;2.00;;;;;19.81;54.60;100772.88;5079103;28;46182;-63
2023/08/26 06:04:59;;;;;;;;;2.67;2.33;;;;;19.80;54.69;100784.41;5066708;27;45948;-62
2023/08/26 06:07:24;;;;;;;;;1.67;1.67;;;;;19.83;54.52;100805.56;5074181;27;45491;-63
2023/08/26 06:09:50;;;;;;;;;3.67;1.67;;;;;19.85;54.29;100793.09;5076923;27;45516;-62
2023/08/26 06:12:15;;;;;;;;;1.33;1.33;;;;;19.98;54.09;100795.28;5074231;27;45975;-63
2023/08/26 06:14:41;;;;;;;;;1.67;1.67;;;;;19.91;53.87;100786.69;5073376;27;45516;-65
2023/08/26 06:17:06;;;;;;;;;3.00;1.00;;;;;19.80;54.56;100802.16;5077034;27;45394;-64
2023/08/26 06:19:32;;;;;;;;;2.00;2.00;;;;;19.67;54.16;100799.00;5067290;27;45570;-65
2023/08/26 06:21:57;;;;;;;;;1.00;1.00;;;;;19.46;54.88;100780.25;5067591;27;46212;-62
2023/08/26 06:24:23;;;;;;;;;1.33;1.33;;;;;19.62;54.85;100796.53;5065479;27;45418;-61
2023/08/26 06:26:48;;;;;;;;;2.00;1.00;;;;;19.60;55.00;100793.06;5068903;27;45449;-62
2023/08/26 06:29:16;;;;;;;;;1.00;1.00;;;;;19.49;55.13;100792.56;5069407;27;45524;-61
2023/08/26 06:31:42;;;;;;;;;2.00;1.00;;;;;19.47;55.49;100789.06;5069826;27;45653;-61
2023/08/26 06:34:07;;;;;;;;;1.00;1.00;;;;;19.52;55.17;100794.22;5067972;27;45868;-62
2023/08/26 06:36:33;;;;;;;;;2.33;2.00;;;;;19.44;54.88;100773.25;5064762;27;45577;-61
2023/08/26 06:38:59;;;;;;;;;2.67;1.67;;;;;19.55;54.81;100794.13;5071811;27;45442;-60
2023/08/26 06:41:38;;;;;;;;;1.00;1.00;;;;;19.46;55.36;100787.34;5064109;27;45603;-60
2023/08/26 06:44:04;;;;;;;;;2.67;2.00;;;;;19.40;55.33;100780.44;5067296;27;45372;-61
2023/08/26 06:46:29;;;;;;;;;1.00;1.00;;;;;19.24;55.62;100776.56;5068603;27;45601;-61
2023/08/26 06:48:55;;;;;;;;;2.00;1.00;;;;;19.37;55.44;100780.56;5073385;27;45498;-62
2023/08/26 06:51:20;;;;;;;;;1.33;1.00;;;;;19.42;55.22;100789.22;5078659;27;45323;-62
2023/08/26 06:53:46;;;;;;;;;3.33;3.00;;;;;19.54;55.12;100782.63;5060030;27;45395;-62
2023/08/26 06:56:12;;;;;;;;;1.00;1.00;;;;;19.60;55.47;100781.53;5069270;27;45487;-60
2023/08/26 06:58:37;;;;;;;;;1.00;1.00;;;;;19.79;54.65;100785.34;5067945;27;45593;-61
2023/08/26 07:01:04;;;;;;;;;4.33;1.00;;;;;19.83;54.25;100768.34;5064735;27;46161;-63
2023/08/26 07:03:30;;;;;;;;;2.00;2.00;;;;;19.88;54.29;100768.19;5070067;27;45468;-61
2023/08/26 07:05:56;;;;;;;;;1.33;1.00;;;;;20.01;54.23;100780.13;5068451;27;45217;-62
2023/08/26 07:08:21;;;;;;;;;4.00;1.67;;;;;20.27;53.78;100788.94;5064685;27;45398;-62
2023/08/26 07:10:47;;;;;;;;;1.00;1.00;;;;;20.51;53.45;100777.34;5053406;27;46276;-61
2023/08/26 07:13:13;;;;;;;;;1.00;1.00;;;;;20.65;52.72;100779.50;5056083;28;45388;-61
2023/08/26 07:15:39;;;;;;;;;1.00;1.00;;;;;20.89;52.65;100780.31;5037014;28;45573;-62
2023/08/26 07:18:05;;;;;;;;;1.33;1.00;;;;;21.05;52.16;100782.38;5057181;28;45293;-61
2023/08/26 07:20:31;;;;;;;;;2.67;1.00;;;;;21.12;51.40;100782.06;5055420;28;45384;-62
2023/08/26 07:22:57;;;;;;;;;3.00;1.00;;;;;21.21;51.63;100771.94;5056766;28;45607;-61
2023/08/26 07:25:29;;;;;;;;;1.00;1.00;;;;;21.30;50.97;100775.09;5056741;28;45541;-62
2023/08/26 07:27:55;;;;;;;;;2.00;1.00;;;;;21.24;51.08;100779.81;5056434;28;45388;-61
2023/08/26 07:30:26;;;;;;;;;2.00;0.33;;;;;21.38;51.02;100785.44;5039247;28;45476;-62
2023/08/26 07:32:51;;;;;;;;;1.33;1.33;;;;;21.45;50.49;100778.97;5053744;28;45343;-63
2023/08/26 07:35:17;;;;;;;;;1.00;1.00;;;;;21.45;50.45;100770.06;5051699;28;45489;-63
2023/08/26 07:37:43;;;;;;;;;2.00;2.00;;;;;21.30;50.55;100771.56;5049737;28;45335;-63
2023/08/26 07:40:14;;;;;;;;;1.00;1.00;;;;;21.24;50.92;100766.50;5050508;28;46165;-63
2023/08/26 07:42:42;;;;;;;;;1.00;1.00;;;;;21.28;51.18;100768.94;5051725;28;45487;-63
2023/08/26 07:45:08;;;;;;;;;0.00;0.00;;;;;21.28;51.38;100771.63;5048749;28;45451;-61
2023/08/26 07:47:33;;;;;;;;;2.00;0.67;;;;;21.34;50.94;100766.03;5052748;28;45422;-63
2023/08/26 07:49:59;;;;;;;;;2.00;2.00;;;;;21.48;50.98;100777.97;5057650;28;48112;-61
2023/08/26 07:52:24;;;;;;;;;1.00;1.00;;;;;21.71;50.39;100771.63;5058657;28;45403;-61
2023/08/26 07:54:51;;;;;;;;;3.33;2.00;;;;;21.76;50.43;100775.81;5058396;28;45482;-63
2023/08/26 07:57:16;;;;;;;;;3.00;1.00;;;;;21.67;50.15;100778.91;5056219;28;45662;-63
2023/08/26 07:59:42;;;;;;;;;2.33;2.33;;;;;21.48;50.69;100783.28;5038674;28;48088;-61
2023/08/26 08:02:07;;;;;;;;;1.00;1.00;;;;;21.52;50.95;100791.09;5056688;28;45430;-62
2023/08/26 08:04:33;;;;;;;;;2.00;2.00;;;;;21.46;52.00;100788.66;5057296;28;45447;-63
2023/08/26 08:06:58;;;;;;;;;4.00;1.00;;;;;21.64;51.57;100789.69;5056004;28;45569;-64
2023/08/26 08:09:25;;;;;;;;;1.33;1.33;;;;;21.80;50.59;100784.53;5062773;28;45954;-62
2023/08/26 08:11:50;;;;;;;;;0.33;0.33;;;;;21.93;50.21;100798.22;5077295;27;45292;-63
2023/08/26 08:14:16;;;;;;;;;3.33;1.67;;;;;21.78;50.53;100789.06;5077038;27;45480;-64
2023/08/26 08:16:41;;;;;;;;;2.00;1.00;;;;;21.87;50.79;100790.47;5077168;27;45434;-62
2023/08/26 08:19:07;;;;;;;;;1.00;1.00;;;;;21.91;50.69;100790.28;5077012;27;45348;-63
2023/08/26 08:21:32;;;;;;;;;1.00;1.00;;;;;22.01;50.19;100799.59;5078416;27;45353;-64
2023/08/26 08:24:00;;;;;;;;;1.00;1.00;;;;;22.00;50.18;100808.53;5079471;27;45247;-63
2023/08/26 08:26:25;;;;;;;;;2.00;0.00;;;;;21.97;49.92;100814.00;5080193;27;46111;-67
2023/08/26 08:28:51;;;;;;;;;1.67;1.00;;;;;21.98;49.95;100829.06;5079705;27;46296;-63
2023/08/26 08:31:16;;;;;;;;;1.00;1.00;;;;;21.86;50.51;100828.75;5093960;27;45348;-67
2023/08/26 08:33:42;;;;;;;;;2.67;1.33;;;;;21.85;50.63;100829.66;5078717;27;45472;-64
2023/08/26 08:36:07;;;;;;;;;2.00;2.00;;;;;21.81;50.60;100800.47;5078260;27;45528;-62
2023/08/26 08:38:33;;;;;;;;;1.33;1.33;;;;;22.02;50.96;100821.81;5078804;27;45628;-62
2023/08/26 08:40:59;;;;;;;;;2.00;2.00;;;;;22.01;50.46;100814.72;5077955;27;45398;-62
2023/08/26 08:43:30;;;;;;;;;2.00;2.00;;;;;22.07;50.65;100814.47;5077025;27;45591;-63
2023/08/26 08:45:56;;;;;;;;;3.00;1.67;;;;;22.03;50.33;100808.38;5076547;27;45234;-64
2023/08/26 08:48:23;;;;;;;;;3.67;2.00;;;;;21.99;50.16;100806.78;5071956;27;45488;-63
2023/08/26 08:50:50;;;;;;;;;1.33;1.33;;;;;21.83;50.25;100813.75;5076404;27;45258;-62
2023/08/26 08:53:27;;;;;;;;;1.00;1.00;;;;;21.86;50.65;100826.94;5092619;27;45384;-61
2023/08/26 08:55:53;;;;;;;;;2.00;1.33;;;;;21.89;50.92;100826.81;5077939;27;45394;-61
2023/08/26 08:58:21;;;;;;;;;2.33;1.67;;;;;21.86;50.64;100829.59;5075579;27;45579;-61
2023/08/26 09:00:47;;;;;;;;;2.00;1.67;;;;;21.85;50.24;100832.34;5065893;27;45392;-60
2023/08/26 09:03:14;;;;;;;;;1.00;1.00;;;;;21.84;50.40;100817.28;5067343;27;45482;-61
2023/08/26 09:05:40;;;;;;;;;1.67;1.67;;;;;21.95;50.40;100815.03;5063193;27;45419;-62
2023/08/26 09:08:08;;;;;;;;;3.00;2.00;;;;;22.11;49.38;100823.19;5066257;28;46106;-61
2023/08/26 09:10:38;;;;;;;;;1.33;1.33;;;;;22.13;49.66;100823.97;5064934;27;45625;-61
2023/08/26 09:13:04;;;;;;;;;1.67;1.67;;;;;22.19;49.52;100821.91;5065596;27;45531;-62
2023/08/26 09:15:30;;;;;;;;;1.00;1.00;;;;;22.29;49.39;100822.41;5066945;27;45342;-61
2023/08/26 09:17:58;;;;;;;;;2.33;1.33;;;;;22.38;49.06;100821.13;5063812;27;46111;-62
2023/08/26 09:20:24;;;;;;;;;2.00;1.00;;;;;22.36;48.41;100823.00;5067437;27;45428;-62
2023/08/26 09:23:02;;;;;;;;;2.00;2.00;;;;;22.48;48.45;100821.56;5063038;27;45461;-61
2023/08/26 09:25:32;;;;;;;;;1.00;1.00;;;;;22.52;48.36;100826.69;5062992;28;45420;-60
2023/08/26 09:28:05;;;;;;;;;2.00;2.00;;;;;22.36;48.65;100826.50;5069213;27;45456;-61
2023/08/26 09:30:30;;;;;;;;;3.67;0.33;;;;;22.39;48.52;100804.16;5060710;28;45560;-62
2023/08/26 09:32:56;;;;;;;;;2.00;1.00;;;;;22.68;48.17;100831.28;5063092;27;45411;-63
2023/08/26 09:35:31;;;;;;;;;0.67;0.67;;;;;22.92;47.92;100830.16;5069302;27;45460;-61
2023/08/26 09:37:58;;;;;;;;;1.00;1.00;;;;;23.11;47.40;100827.47;5078276;27;47217;-62
2023/08/26 09:40:24;;;;;;;;;1.00;1.00;;;;;23.13;46.75;100825.59;5073103;27;45326;-61
2023/08/26 09:42:51;;;;;;;;;1.00;1.00;;;;;23.13;46.60;100824.72;5068975;27;45322;-61
2023/08/26 09:45:20;;;;;;;;;3.00;2.00;;;;;23.24;46.64;100820.59;5066547;27;45477;-62
2023/08/26 09:47:49;;;;;;;;;1.25;1.25;;;;;23.42;46.85;100815.25;5069962;27;46144;-62
2023/08/26 09:50:14;;;;;;;;;1.00;1.00;;;;;23.44;45.61;100814.25;5077367;27;45209;-61
2023/08/26 09:52:48;;;;;;;;;1.00;1.00;;;;;23.52;44.81;100816.53;5079875;27;45323;-61
2023/08/26 09:55:14;;;;;;;;;1.00;1.00;;;;;23.46;44.41;100816.84;5075934;27;45445;-61
2023/08/26 09:57:41;;;;;;;;;1.00;1.00;;;;;23.37;44.71;100820.84;5078392;27;45489;-62
2023/08/26 10:00:11;;;;;;;;;1.00;0.00;;;;;23.36;45.38;100819.13;5079373;27;45443;-62
2023/08/26 10:02:49;;;;;;;;;2.25;1.00;;;;;23.20;45.62;100802.09;5071157;27;45394;-61
2023/08/26 10:05:20;;;;;;;;;1.00;1.00;;;;;23.16;45.57;100821.91;5075986;27;45362;-62
2023/08/26 10:07:50;;;;;;;;;2.25;1.00;;;;;22.88;45.79;100817.88;5079937;27;45398;-61
2023/08/26 10:10:26;;;;;;;;;1.75;1.75;;;;;22.94;46.36;100808.69;5093834;27;45593;-61
2023/08/26 10:13:04;;;;;;;;;2.25;1.50;;;;;22.95;46.40;100805.09;5079106;27;45425;-61
2023/08/26 10:15:35;;;;;;;;;0.50;0.50;;;;;23.07;46.35;100810.72;5078557;27;45639;-62
2023/08/26 10:18:14;;;;;;;;;1.00;1.00;;;;;23.22;45.79;100814.44;5078416;27;45552;-61
2023/08/26 10:20:41;;;;;;;;;0.00;0.00;;;;;23.36;45.89;100810.22;5078910;27;45582;-64
2023/08/26 10:23:07;;;;;;;;;1.67;1.67;;;;;23.46;45.26;100803.47;5078713;27;45491;-61
2023/08/26 10:25:33;;;;;;;;;0.25;0.25;;;;;23.47;45.77;100807.91;5078255;27;45482;-62
2023/08/26 10:28:03;;;;;;;;;1.00;1.00;;;;;23.40;44.83;100810.00;5078365;27;45713;-62
2023/08/26 10:30:29;;;;;;;;;1.00;1.00;;;;;23.24;45.62;100807.22;5094059;27;45444;-66
2023/08/26 10:33:00;;;;;;;;;0.50;0.50;;;;;23.45;44.98;100796.41;5079177;27;45471;-66
2023/08/26 10:35:27;;;;;;;;;1.25;1.25;;;;;23.60;44.31;100784.06;5078923;27;45237;-65
2023/08/26 10:38:08;;;;;;;;;1.00;1.00;;;;;23.70;43.44;100796.00;5059955;28;45392;-62
2023/08/26 10:40:34;;;;;;;;;2.00;1.00;;;;;23.94;42.60;100790.34;5078132;27;45545;-63
2023/08/26 10:43:04;;;;;;;;;0.00;0.00;;;;;23.98;43.03;100791.91;5078337;27;45287;-62
2023/08/26 10:45:30;;;;;;;;;1.00;0.00;;;;;24.10;41.91;100788.59;5087390;27;45657;-62
2023/08/26 10:47:56;;;;;;;;;1.25;1.25;;;;;24.33;41.69;100801.59;5081584;27;45396;-66
2023/08/26 10:50:29;;;;;;;;;1.00;1.00;;;;;24.16;41.94;100777.56;5095551;27;45409;-62
2023/08/26 10:52:59;;;;;;;;;1.00;1.00;;;;;24.03;42.59;100790.72;5113020;27;45518;-61
2023/08/26 10:55:34;;;;;;;;;2.00;2.00;;;;;24.15;43.08;100780.31;5079725;27;45438;-65
2023/08/26 10:58:18;;;;;;;;;1.00;1.00;;;;;24.41;42.05;100777.06;5078401;27;45527;-64
2023/08/26 11:00:48;;;;;;;;;1.00;1.00;;;;;24.63;42.18;100779.47;5078455;27;45453;-67
2023/08/26 11:03:17;;;;;;;;;1.00;1.00;;;;;24.67;41.69;100753.38;5078777;27;45442;-64
2023/08/26 11:05:44;;;;;;;;;3.00;2.00;;;;;24.83;41.21;100775.66;5078751;27;45476;-61
2023/08/26 11:08:10;;;;;;;;;1.75;1.75;;;;;25.00;40.63;100758.59;5078227;27;46057;-62
2023/08/26 11:10:41;;;;;;;;;1.25;1.00;;;;;24.97;40.45;100762.34;5078109;27;45374;-61
2023/08/26 11:13:11;;;;;;;;;2.00;2.00;;;;;24.93;40.92;100750.06;5078355;27;45389;-62
2023/08/26 11:15:39;;;;;;;;;2.00;1.00;;;;;25.13;40.92;100765.00;5077066;27;45574;-60
2023/08/26 11:18:06;;;;;;;;;1.00;1.00;;;;;25.04;39.94;100754.81;5077941;27;45706;-60
2023/08/26 11:20:33;;;;;;;;;1.00;1.00;;;;;25.21;40.49;100761.03;5078138;27;45425;-62
2023/08/26 11:23:04;;;;;;;;;1.25;1.00;;;;;25.22;39.44;100750.19;5078093;27;45440;-62